首页
METAR-TAF:

METAR-TAF

机场 :

Timmins, 安大略省, 加拿大

纬度: 48-34N, 经度: 081-22W, 海拔: 295米

当前天气观测

该预报发布于31分钟前的19:00 UTC
风速10节,风向西转西北,有时为16节阵风
温度 -17°C
湿度 59%
气压 1026 hPa
能見度: 9.7公里
少量云层高于2000英尺
多云层高于2800英尺
小雪

METAR: CYTS 191900Z 30010G16KT 6SM -SN FEW020 BKN028 M17/M23 A3031 RMK SF1SC7 SF TR SLP298

时间: 14:31 (19:31 UTC)

预报

该预报发布于5小时和53分钟前的13:38 UTC
预报有效从19日的 14点(UTC)到 20日的 02点(UTC)
风速8节,风向西北,有时为18节阵风
能見度: 10公里
多云层高于2500英尺
短暂存在
从 19日的 14点(UTC)到 20日的 02点(UTC)
能見度: 8.0公里
多云层高于2000英尺
小阵雪

TAF: CYTS 191338Z 1914/2002 32008G18KT P6SM BKN025 TEMPO 1914/2002 5SM -SHSN BKN020 RMK NXT FCST BY 192000Z

超过4000个机场的气象观测和天气预报(METAR&TAF报告)。

可查询的气象台以黄色和红色小点在地图上表示。

将鼠标移到小点上方,可查看气象台名称。

然后点击查看天气观测和预报。

如需切换地图:点击带黑十字的绿色按钮放大地图;点击带横线的绿色按钮缩小地图;或者点击绿色箭头查看邻近地区的地图。


METAR-TAF: